createdAt,value
2018-09-28T00:00:27.015Z,7.9
2018-09-28T00:01:28.584Z,7.9
2018-09-28T00:02:30.169Z,7.9
2018-09-28T00:03:31.717Z,7.9
2018-09-28T00:04:33.280Z,7.9
2018-09-28T00:05:34.848Z,7.9
2018-09-28T00:06:36.413Z,7.9
2018-09-28T00:07:37.978Z,7.9
2018-09-28T00:08:39.521Z,7.9
2018-09-28T00:09:40.930Z,7.9
2018-09-28T00:10:42.342Z,7.9
2018-09-28T00:11:43.755Z,7.9
2018-09-28T00:12:45.326Z,7.9
2018-09-28T00:13:46.730Z,7.9
2018-09-28T00:14:48.287Z,7.9
2018-09-28T00:15:49.698Z,7.9
2018-09-28T00:16:51.274Z,7.9
2018-09-28T00:17:52.830Z,7.9
2018-09-28T00:18:54.390Z,7.9
2018-09-28T00:19:55.787Z,7.9
2018-09-28T00:20:57.349Z,7.9
2018-09-28T00:21:58.915Z,7.9
2018-09-28T00:23:00.322Z,7.9
2018-09-28T00:24:01.565Z,7.9
2018-09-28T00:25:03.138Z,7.9
2018-09-28T00:26:05.024Z,7.8
2018-09-28T00:27:06.472Z,7.8
2018-09-28T00:28:07.877Z,7.8
2018-09-28T00:29:09.437Z,7.8
2018-09-28T00:30:10.995Z,7.8
2018-09-28T00:31:12.559Z,7.8
2018-09-28T00:32:14.117Z,7.8
2018-09-28T00:33:15.695Z,7.8
2018-09-28T00:34:17.153Z,7.8
2018-09-28T00:35:18.738Z,7.8
2018-09-28T00:36:19.983Z,7.8
2018-09-28T00:37:21.218Z,7.8
2018-09-28T00:38:22.778Z,7.8
2018-09-28T00:39:24.351Z,7.8
2018-09-28T00:40:25.909Z,7.8
2018-09-28T00:41:27.518Z,7.8
2018-09-28T00:42:29.078Z,7.8
2018-09-28T00:43:30.645Z,7.8
2018-09-28T00:44:32.213Z,7.8
2018-09-28T00:45:33.443Z,7.8
2018-09-28T00:46:34.987Z,7.7
2018-09-28T00:47:36.235Z,7.7
2018-09-28T00:48:37.460Z,7.7
2018-09-28T00:49:38.996Z,7.7
2018-09-28T00:50:40.219Z,7.7
2018-09-28T00:51:41.779Z,7.7
2018-09-28T00:52:43.338Z,7.7
2018-09-28T00:53:44.932Z,7.7
2018-09-28T00:54:46.487Z,7.7
2018-09-28T00:55:48.059Z,7.7
2018-09-28T00:56:49.625Z,7.8
2018-09-28T00:57:51.181Z,7.8
2018-09-28T00:58:52.728Z,7.8
2018-09-28T00:59:54.132Z,7.8
2018-09-28T01:00:55.693Z,7.9
2018-09-28T01:01:57.259Z,7.8
2018-09-28T01:02:58.817Z,7.8
2018-09-28T01:04:00.371Z,7.8
2018-09-28T01:05:01.757Z,7.7
2018-09-28T01:06:03.305Z,7.6
2018-09-28T01:07:04.859Z,7.5
2018-09-28T01:08:06.401Z,7.4
2018-09-28T01:09:07.951Z,7.2
2018-09-28T01:10:09.338Z,7.2
2018-09-28T01:11:10.726Z,7.2
2018-09-28T01:12:12.273Z,7.2
2018-09-28T01:13:13.822Z,7.2
2018-09-28T01:14:15.381Z,7.2
2018-09-28T01:15:16.971Z,7.2
2018-09-28T01:16:18.360Z,7.2
2018-09-28T01:17:19.946Z,7.2
2018-09-28T01:18:21.506Z,7.2
2018-09-28T01:19:23.075Z,7.2
2018-09-28T01:20:24.637Z,7.2
2018-09-28T01:21:26.197Z,7.2
2018-09-28T01:22:27.746Z,7.2
2018-09-28T01:23:29.297Z,7.2
2018-09-28T01:24:30.856Z,7.1
2018-09-28T01:25:32.419Z,7.1
2018-09-28T01:26:33.651Z,7.1
2018-09-28T01:27:35.051Z,7.1
2018-09-28T01:28:36.593Z,7.1
2018-09-28T01:29:38.152Z,7.1
2018-09-28T01:30:39.715Z,7.1
2018-09-28T01:31:41.261Z,7.1
2018-09-28T01:32:42.659Z,7.1
2018-09-28T01:33:44.214Z,7.1
2018-09-28T01:34:45.627Z,7.1
2018-09-28T01:35:47.179Z,7.1
2018-09-28T01:36:48.734Z,7.1
2018-09-28T01:37:50.282Z,7.1
2018-09-28T01:38:51.829Z,7.1
2018-09-28T01:39:53.376Z,7.1
2018-09-28T01:40:54.783Z,7.1
2018-09-28T01:41:56.327Z,7.1
2018-09-28T01:42:57.729Z,7.1
2018-09-28T01:43:59.136Z,7.1
2018-09-28T01:45:00.728Z,7.1
2018-09-28T01:46:02.280Z,7.1
2018-09-28T01:47:03.835Z,7.1
2018-09-28T01:48:05.397Z,7.2
2018-09-28T01:49:06.824Z,7.2
2018-09-28T01:50:08.403Z,7.2
2018-09-28T01:51:09.970Z,7.2
2018-09-28T01:52:11.218Z,7.2
2018-09-28T01:53:12.800Z,7.2
2018-09-28T01:54:14.259Z,7.2
2018-09-28T01:55:15.814Z,7.2
2018-09-28T01:56:17.203Z,7.2
2018-09-28T01:57:18.748Z,7.2
2018-09-28T01:58:20.314Z,7.2
2018-09-28T01:59:21.881Z,7.2
2018-09-28T02:00:23.426Z,7.2
2018-09-28T02:01:24.989Z,7.2
2018-09-28T02:02:26.537Z,7.2
2018-09-28T02:03:28.103Z,7.3
2018-09-28T02:04:29.691Z,7.3
2018-09-28T02:05:31.239Z,7.3
2018-09-28T02:06:32.788Z,7.4
2018-09-28T02:07:34.330Z,7.4
2018-09-28T02:09:07.645Z,7.5
2018-09-28T02:10:09.219Z,7.6
2018-09-28T02:11:10.596Z,7.7
2018-09-28T02:12:11.977Z,7.8
2018-09-28T02:13:13.536Z,7.8
2018-09-28T02:14:15.103Z,7.9
2018-09-28T02:15:16.662Z,7.9
2018-09-28T02:16:18.246Z,7.9
2018-09-28T02:17:19.658Z,7.9
2018-09-28T02:18:21.203Z,7.9
2018-09-28T02:19:22.764Z,7.9
2018-09-28T02:20:24.325Z,7.9
2018-09-28T02:21:25.883Z,7.9
2018-09-28T02:22:27.444Z,7.9
2018-09-28T02:23:29.011Z,7.9
2018-09-28T02:24:30.555Z,7.9
2018-09-28T02:25:31.948Z,7.9
2018-09-28T02:26:33.531Z,7.9
2018-09-28T02:27:35.106Z,7.9
2018-09-28T02:28:36.687Z,7.9
2018-09-28T02:29:38.261Z,7.9
2018-09-28T02:30:39.827Z,7.9
2018-09-28T02:31:41.400Z,7.9
2018-09-28T02:32:42.948Z,7.9
2018-09-28T02:33:44.583Z,7.9
2018-09-28T02:34:46.147Z,7.9
2018-09-28T02:35:47.550Z,7.9
2018-09-28T02:36:49.118Z,7.9
2018-09-28T02:37:50.345Z,7.9
2018-09-28T02:38:51.907Z,7.9
2018-09-28T02:39:53.465Z,7.9
2018-09-28T02:40:54.701Z,7.9
2018-09-28T02:41:56.289Z,7.9
2018-09-28T02:42:57.676Z,7.9
2018-09-28T02:43:59.227Z,7.9
2018-09-28T02:45:00.793Z,7.9
2018-09-28T02:46:02.359Z,7.9
2018-09-28T02:47:03.927Z,7.9
2018-09-28T02:48:05.495Z,7.9
2018-09-28T02:49:06.898Z,7.9
2018-09-28T02:50:08.455Z,7.9
2018-09-28T02:51:09.855Z,7.9
2018-09-28T02:52:11.398Z,7.9
2018-09-28T02:53:12.992Z,7.3
2018-09-28T02:54:14.562Z,7.4
2018-09-28T02:55:16.110Z,7.4
2018-09-28T02:56:17.664Z,7.5
2018-09-28T02:57:19.227Z,7.6
2018-09-28T02:58:20.614Z,7.6
2018-09-28T02:59:22.190Z,7.7
2018-09-28T03:00:23.756Z,7.7
2018-09-28T03:01:25.156Z,7.8
2018-09-28T03:02:26.748Z,7.8
2018-09-28T03:03:28.312Z,7.8
2018-09-28T03:04:29.874Z,7.8
2018-09-28T03:05:31.275Z,7.8
2018-09-28T03:06:32.818Z,7.8
2018-09-28T03:07:34.384Z,7.8
2018-09-28T03:08:35.956Z,7.8
2018-09-28T03:09:37.499Z,7.8
2018-09-28T03:10:39.088Z,7.8
2018-09-28T03:11:40.644Z,7.8
2018-09-28T03:12:42.237Z,7.8
2018-09-28T03:13:43.638Z,7.9
2018-09-28T03:14:45.234Z,7.9
2018-09-28T03:15:46.656Z,7.9
2018-09-28T03:16:48.062Z,7.9
2018-09-28T03:17:49.624Z,7.8
2018-09-28T03:18:51.194Z,7.8
2018-09-28T03:19:52.473Z,7.8
2018-09-28T03:20:53.880Z,7.7
2018-09-28T03:21:55.466Z,7.6
2018-09-28T03:22:56.854Z,7.4
2018-09-28T03:23:58.408Z,7.3
2018-09-28T03:25:00.008Z,7.2
2018-09-28T03:26:02.225Z,7.2
2018-09-28T03:27:03.380Z,7.2
2018-09-28T03:28:04.956Z,7.2
2018-09-28T03:29:06.539Z,7.2
2018-09-28T03:30:07.992Z,7.2
2018-09-28T03:31:09.593Z,7.1
2018-09-28T03:32:11.008Z,7.1
2018-09-28T03:33:12.574Z,7.2
2018-09-28T03:34:14.119Z,7.2
2018-09-28T03:35:15.497Z,7.2
2018-09-28T03:36:17.086Z,7.1
2018-09-28T03:37:19.717Z,7.2
2018-09-28T03:38:21.423Z,7.2
2018-09-28T03:39:22.874Z,7.2
2018-09-28T03:40:24.746Z,7.1
2018-09-28T03:41:26.383Z,7.2
2018-09-28T03:42:27.812Z,7.2
2018-09-28T03:43:29.492Z,7.2
2018-09-28T03:44:31.087Z,7.2
2018-09-28T03:45:32.505Z,7.2
2018-09-28T03:46:34.096Z,7.2
2018-09-28T03:47:35.556Z,7.2
2018-09-28T03:48:36.984Z,7.2
2018-09-28T03:49:38.259Z,7.2
2018-09-28T03:50:39.823Z,7.2
2018-09-28T03:51:41.408Z,7.2
2018-09-28T03:52:42.967Z,7.2
2018-09-28T03:53:44.551Z,7.2
2018-09-28T03:54:46.115Z,7.2
2018-09-28T03:55:47.691Z,7.2
2018-09-28T03:56:49.252Z,7.2
2018-09-28T03:57:50.830Z,7.2
2018-09-28T03:58:52.230Z,7.2
2018-09-28T03:59:53.609Z,7.2
2018-09-28T04:00:55.166Z,7.3
2018-09-28T04:01:56.730Z,7.3
2018-09-28T04:02:58.508Z,7.4
2018-09-28T04:04:00.146Z,7.4
2018-09-28T04:05:01.702Z,7.5
2018-09-28T04:06:03.258Z,7.6
2018-09-28T04:07:04.823Z,7.7
2018-09-28T04:08:06.051Z,7.8
2018-09-28T04:09:07.644Z,7.9
2018-09-28T04:10:09.206Z,7.9
2018-09-28T04:11:10.755Z,7.9
2018-09-28T04:12:12.313Z,7.9
2018-09-28T04:13:13.725Z,7.9
2018-09-28T04:14:15.117Z,7.9
2018-09-28T04:15:17.386Z,7.9
2018-09-28T04:16:19.048Z,7.9
2018-09-28T04:17:20.608Z,7.9
2018-09-28T04:18:21.999Z,7.9
2018-09-28T04:19:23.447Z,7.9
2018-09-28T04:20:25.021Z,7.9
2018-09-28T04:21:26.408Z,7.9
2018-09-28T04:22:28.002Z,7.9
2018-09-28T04:23:29.542Z,7.9
2018-09-28T04:24:31.124Z,7.9
2018-09-28T04:25:32.707Z,7.9
2018-09-28T04:26:34.081Z,7.9
2018-09-28T04:27:35.650Z,7.9
2018-09-28T04:28:37.056Z,7.9
2018-09-28T04:29:38.478Z,7.9
2018-09-28T04:30:40.049Z,7.9
2018-09-28T04:31:41.622Z,7.9
2018-09-28T04:32:43.193Z,7.9
2018-09-28T04:33:44.761Z,7.9
2018-09-28T04:34:46.328Z,7.9
2018-09-28T04:35:47.895Z,7.9
2018-09-28T04:36:49.297Z,7.9
2018-09-28T04:37:50.854Z,7.9
2018-09-28T04:38:52.426Z,7.8
2018-09-28T04:39:54.173Z,7.8
2018-09-28T04:40:55.637Z,7.8
2018-09-28T04:41:57.225Z,7.8
2018-09-28T04:42:58.472Z,7.8
2018-09-28T04:44:00.053Z,7.8
2018-09-28T04:45:01.870Z,7.9
2018-09-28T04:46:03.452Z,7.3
2018-09-28T04:47:04.858Z,7.3
2018-09-28T04:48:06.255Z,7.4
2018-09-28T04:49:07.821Z,7.4
2018-09-28T04:50:09.383Z,7.4
2018-09-28T04:51:10.776Z,7.5
2018-09-28T04:52:12.173Z,7.5
2018-09-28T04:53:13.734Z,7.5
2018-09-28T04:54:15.285Z,7.5
2018-09-28T04:55:16.713Z,7.5
2018-09-28T04:56:18.293Z,7.6
2018-09-28T04:57:19.851Z,7.6
2018-09-28T04:58:21.246Z,7.6
2018-09-28T04:59:22.825Z,7.7
2018-09-28T05:00:24.252Z,7.7
2018-09-28T05:01:25.822Z,7.7
2018-09-28T05:02:27.210Z,7.7
2018-09-28T05:03:28.758Z,7.7
2018-09-28T05:04:30.169Z,7.6
2018-09-28T05:05:31.738Z,7.6
2018-09-28T05:06:33.137Z,7.6
2018-09-28T05:07:34.527Z,7.6
2018-09-28T05:08:35.927Z,7.6
2018-09-28T05:09:37.517Z,7.7
2018-09-28T05:10:39.097Z,7.7
2018-09-28T05:11:40.667Z,7.7
2018-09-28T05:12:42.231Z,7.6
2018-09-28T05:13:43.620Z,7.6
2018-09-28T05:14:45.180Z,7.6
2018-09-28T05:15:46.609Z,7.5
2018-09-28T05:16:48.183Z,7.4
2018-09-28T05:17:49.749Z,7.2
2018-09-28T05:18:51.167Z,7.2
2018-09-28T05:19:52.781Z,7.2
2018-09-28T05:20:54.341Z,7.2
2018-09-28T05:21:55.924Z,7.2
2018-09-28T05:22:57.317Z,7.2
2018-09-28T05:23:58.887Z,7.2
2018-09-28T05:25:00.385Z,7.2
2018-09-28T05:26:01.971Z,7.2
2018-09-28T05:27:03.545Z,7.2
2018-09-28T05:28:05.167Z,7.2
2018-09-28T05:29:06.588Z,7.2
2018-09-28T05:30:08.141Z,7.2
2018-09-28T05:31:09.926Z,7.2
2018-09-28T05:32:12.973Z,7.2
2018-09-28T05:33:14.568Z,7.2
2018-09-28T05:34:16.155Z,7.2
2018-09-28T05:35:17.755Z,7.2
2018-09-28T05:36:19.305Z,7.2
2018-09-28T05:37:21.582Z,7.2
2018-09-28T05:38:23.195Z,7.2
2018-09-28T05:39:24.989Z,7.2
2018-09-28T05:40:26.645Z,7.2
2018-09-28T05:41:28.232Z,7.2
2018-09-28T05:42:29.812Z,7.2
2018-09-28T05:43:31.226Z,7.2
2018-09-28T05:44:32.808Z,7.2
2018-09-28T05:45:34.196Z,7.2
2018-09-28T05:46:35.604Z,7.2
2018-09-28T05:47:37.207Z,7.3
2018-09-28T05:48:38.792Z,7.3
2018-09-28T05:49:40.376Z,7.4
2018-09-28T05:50:42.025Z,7.4
2018-09-28T05:51:43.591Z,7.5
2018-09-28T05:52:45.169Z,7.6
2018-09-28T05:53:46.744Z,7.6
2018-09-28T05:54:48.290Z,7.7
2018-09-28T05:55:49.869Z,7.8
2018-09-28T05:56:51.421Z,7.9
2018-09-28T05:57:52.993Z,7.9
2018-09-28T05:58:54.217Z,7.9
2018-09-28T05:59:55.511Z,7.9
2018-09-28T06:00:56.926Z,7.9
2018-09-28T06:01:58.320Z,7.9
2018-09-28T06:02:59.885Z,7.9
2018-09-28T06:04:01.593Z,7.9
2018-09-28T06:05:03.199Z,7.9
2018-09-28T06:06:04.642Z,7.9
2018-09-28T06:07:06.242Z,7.9
2018-09-28T06:08:07.805Z,7.9
2018-09-28T06:09:09.221Z,7.9
2018-09-28T06:10:10.775Z,7.9
2018-09-28T06:11:12.351Z,7.9
2018-09-28T06:12:13.937Z,7.9
2018-09-28T06:13:15.530Z,7.9
2018-09-28T06:14:17.096Z,7.9
2018-09-28T06:15:18.178Z,7.9
2018-09-28T06:16:19.493Z,7.9
2018-09-28T06:17:20.558Z,7.9
2018-09-28T06:18:22.234Z,7.9
2018-09-28T06:19:23.699Z,7.9
2018-09-28T06:20:25.166Z,7.9
2018-09-28T06:21:26.848Z,7.9
2018-09-28T06:22:28.258Z,7.8
2018-09-28T06:23:30.051Z,7.9
2018-09-28T06:24:31.471Z,7.9
2018-09-28T06:25:33.249Z,7.9
2018-09-28T06:26:34.815Z,7.9
2018-09-28T06:27:36.413Z,7.9
2018-09-28T06:28:37.976Z,7.9
2018-09-28T06:29:39.643Z,7.9
2018-09-28T06:30:41.255Z,7.9
2018-09-28T06:31:42.681Z,7.9
2018-09-28T06:32:44.269Z,7.9
2018-09-28T06:33:45.863Z,7.8
2018-09-28T06:34:47.404Z,7.9
2018-09-28T06:35:49.254Z,7.9
2018-09-28T06:36:50.658Z,7.9
2018-09-28T06:37:52.257Z,7.9
2018-09-28T06:38:53.825Z,7.8
2018-09-28T06:39:55.400Z,7.8
2018-09-28T06:40:56.799Z,7.8
2018-09-28T06:41:59.063Z,7.8
2018-09-28T06:43:00.734Z,7.8
2018-09-28T06:44:02.314Z,7.8
2018-09-28T06:45:03.548Z,7.8
2018-09-28T06:46:04.783Z,7.8
2018-09-28T06:47:06.337Z,7.8
2018-09-28T06:48:08.210Z,7.8
2018-09-28T06:49:09.620Z,7.8
2018-09-28T06:50:11.036Z,7.7
2018-09-28T06:51:12.685Z,7.7
2018-09-28T06:52:14.253Z,7.7
2018-09-28T06:53:15.663Z,7.7
2018-09-28T06:54:17.460Z,7.6
2018-09-28T06:55:18.896Z,7.6
2018-09-28T06:56:20.485Z,7.6
2018-09-28T06:57:22.048Z,7.6
2018-09-28T06:58:23.550Z,7.7
2018-09-28T06:59:25.141Z,7.7
2018-09-28T07:00:27.237Z,7.7
2018-09-28T07:01:28.834Z,7.7
2018-09-28T07:02:30.237Z,7.7
2018-09-28T07:03:31.800Z,7.8
2018-09-28T07:04:33.393Z,7.8
2018-09-28T07:05:34.797Z,7.8
2018-09-28T07:06:36.250Z,7.9
2018-09-28T07:07:37.809Z,7.9
2018-09-28T07:08:39.244Z,7.9
2018-09-28T07:09:40.464Z,7.9
2018-09-28T07:10:41.887Z,7.9
2018-09-28T07:11:43.967Z,7.8
2018-09-28T07:12:45.644Z,7.8
2018-09-28T07:13:47.231Z,7.7
2018-09-28T07:14:48.805Z,7.6
2018-09-28T07:15:50.363Z,7.5
2018-09-28T07:16:52.851Z,7.4
2018-09-28T07:17:55.208Z,7.2
2018-09-28T07:18:56.776Z,7.2
2018-09-28T07:19:58.014Z,7.2
2018-09-28T07:20:59.437Z,7.2
2018-09-28T07:22:01.017Z,7.2
2018-09-28T07:23:02.574Z,7.2
2018-09-28T07:24:04.168Z,7.2
2018-09-28T07:25:05.458Z,7.1
2018-09-28T07:26:06.925Z,7.1
2018-09-28T07:27:08.306Z,7.2
2018-09-28T07:28:09.563Z,7.1
2018-09-28T07:29:10.787Z,7.1
2018-09-28T07:30:12.362Z,7.2
2018-09-28T07:31:13.814Z,7.1
2018-09-28T07:32:15.071Z,7.2
2018-09-28T07:33:16.301Z,7.1
2018-09-28T07:34:17.852Z,7.2
2018-09-28T07:35:19.247Z,7.2
2018-09-28T07:36:21.792Z,7.1
2018-09-28T07:37:22.838Z,7.2
2018-09-28T07:38:24.410Z,7.2
2018-09-28T07:39:25.482Z,7.2
2018-09-28T07:40:27.064Z,7.2
2018-09-28T07:41:28.507Z,7.2
2018-09-28T07:42:30.085Z,7.2
2018-09-28T07:43:31.657Z,7.2
2018-09-28T07:44:33.232Z,7.2
2018-09-28T07:45:34.462Z,7.2
2018-09-28T07:46:36.027Z,7.2
2018-09-28T07:47:37.607Z,7.2
2018-09-28T07:48:39.011Z,7.2
2018-09-28T07:49:40.567Z,7.2
2018-09-28T07:50:42.167Z,7.2
2018-09-28T07:51:43.750Z,7.2
2018-09-28T07:52:45.336Z,7.2
2018-09-28T07:53:46.892Z,7.2
2018-09-28T07:54:48.124Z,7.2
2018-09-28T07:55:50.127Z,7.2
2018-09-28T07:56:51.777Z,7.2
2018-09-28T07:57:53.206Z,7.2
2018-09-28T07:58:54.439Z,7.3
2018-09-28T07:59:56.098Z,7.3
2018-09-28T08:00:57.747Z,7.3
2018-09-28T08:01:59.317Z,7.4
2018-09-28T08:03:00.877Z,7.4
2018-09-28T08:04:03.252Z,7.5
2018-09-28T08:05:04.922Z,7.5
2018-09-28T08:06:06.318Z,7.6
2018-09-28T08:07:07.874Z,7.7
2018-09-28T08:08:09.268Z,7.8
2018-09-28T08:09:10.689Z,7.8
2018-09-28T08:10:12.266Z,7.9
2018-09-28T08:11:13.683Z,7.9
2018-09-28T08:12:15.252Z,7.9
2018-09-28T08:13:16.663Z,7.9
2018-09-28T08:14:18.072Z,7.9
2018-09-28T08:15:19.438Z,7.9
2018-09-28T08:16:20.836Z,7.9
2018-09-28T08:17:22.436Z,7.9
2018-09-28T08:18:24.016Z,7.9
2018-09-28T08:19:25.577Z,7.9
2018-09-28T08:20:26.825Z,7.9
2018-09-28T08:21:28.389Z,7.9
2018-09-28T08:22:29.968Z,7.9
2018-09-28T08:23:32.335Z,7.9
2018-09-28T08:24:34.271Z,7.9
2018-09-28T08:25:35.857Z,7.9
2018-09-28T08:26:37.429Z,7.7
2018-09-28T08:27:38.889Z,7.9
2018-09-28T08:28:40.447Z,7.9
2018-09-28T08:29:41.845Z,7.9
2018-09-28T08:30:43.249Z,7.9
2018-09-28T08:31:44.631Z,7.9
2018-09-28T08:32:46.039Z,7.9
2018-09-28T08:33:47.457Z,7.9
2018-09-28T08:34:48.877Z,7.9
2018-09-28T08:35:50.471Z,7.9
2018-09-28T08:36:52.854Z,7.9
2018-09-28T08:37:54.502Z,7.9
2018-09-28T08:38:56.053Z,7.9
2018-09-28T08:39:57.628Z,7.9
2018-09-28T08:40:59.191Z,7.9
2018-09-28T08:42:01.453Z,7.9
2018-09-28T08:43:02.904Z,7.9
2018-09-28T08:44:04.481Z,7.9
2018-09-28T08:45:05.894Z,7.9
2018-09-28T08:46:07.470Z,7.9
2018-09-28T08:47:08.888Z,7.9
2018-09-28T08:48:10.294Z,7.9
2018-09-28T08:49:11.731Z,7.9
2018-09-28T08:50:13.308Z,7.9
2018-09-28T08:51:14.901Z,7.9
2018-09-28T08:52:16.459Z,7.9
2018-09-28T08:53:17.858Z,7.9
2018-09-28T08:54:19.471Z,7.9
2018-09-28T08:55:21.139Z,7.9
2018-09-28T08:56:22.722Z,7.9
2018-09-28T08:57:24.292Z,7.9
2018-09-28T08:58:25.675Z,7.9
2018-09-28T08:59:26.751Z,7.9
2018-09-28T09:00:28.342Z,7.8
2018-09-28T09:01:29.906Z,7.8
2018-09-28T09:02:31.487Z,7.7
2018-09-28T09:03:33.064Z,7.6
2018-09-28T09:04:34.630Z,7.5
2018-09-28T09:05:36.270Z,7.4
2018-09-28T09:06:37.864Z,7.2
2018-09-28T09:07:39.322Z,7.2
2018-09-28T09:08:40.883Z,7.2
2018-09-28T09:09:42.280Z,7.2
2018-09-28T09:10:43.838Z,7.2
2018-09-28T09:11:45.268Z,7.1
2018-09-28T09:12:46.839Z,7.2
2018-09-28T09:13:48.412Z,7.2
2018-09-28T09:14:49.800Z,7.1
2018-09-28T09:15:51.173Z,7.1
2018-09-28T09:16:52.585Z,7.1
2018-09-28T09:17:54.730Z,7.1
2018-09-28T09:18:56.065Z,7.2
2018-09-28T09:19:57.615Z,7.2
2018-09-28T09:20:59.013Z,7.2
2018-09-28T09:22:00.589Z,7.2
2018-09-28T09:23:02.179Z,7.2
2018-09-28T09:24:04.007Z,7.2
2018-09-28T09:25:05.757Z,7.2
2018-09-28T09:26:06.990Z,7.2
2018-09-28T09:27:08.386Z,7.2
2018-09-28T09:28:09.768Z,7.2
2018-09-28T09:29:11.338Z,7.2
2018-09-28T09:30:12.873Z,7.2
2018-09-28T09:31:14.515Z,7.2
2018-09-28T09:32:15.950Z,7.2
2018-09-28T09:33:17.516Z,7.2
2018-09-28T09:34:19.083Z,7.2
2018-09-28T09:35:20.645Z,7.2
2018-09-28T09:36:22.289Z,7.2
2018-09-28T09:37:23.832Z,7.2
2018-09-28T09:38:25.218Z,7.2
2018-09-28T09:39:26.487Z,7.2
2018-09-28T09:40:27.880Z,7.2
2018-09-28T09:41:29.274Z,7.2
2018-09-28T09:42:30.887Z,7.2
2018-09-28T09:43:32.285Z,7.3
2018-09-28T09:44:33.837Z,7.3
2018-09-28T09:45:35.407Z,7.3
2018-09-28T09:46:36.968Z,7.4
2018-09-28T09:47:38.547Z,7.4
2018-09-28T09:48:40.132Z,7.4
2018-09-28T09:49:41.365Z,7.5
2018-09-28T09:50:42.948Z,7.5
2018-09-28T09:51:44.508Z,7.6
2018-09-28T09:52:46.075Z,7.7
2018-09-28T09:53:47.642Z,7.8
2018-09-28T09:54:49.206Z,7.8
2018-09-28T09:55:50.774Z,7.9
2018-09-28T09:56:52.336Z,7.9
2018-09-28T09:57:55.076Z,7.9
2018-09-28T09:58:56.678Z,7.9
2018-09-28T09:59:58.076Z,7.9
2018-09-28T10:00:59.648Z,7.9
2018-09-28T10:02:01.219Z,7.8
2018-09-28T10:03:02.865Z,7.9
2018-09-28T10:04:04.428Z,7.9
2018-09-28T10:05:05.666Z,7.9
2018-09-28T10:06:07.051Z,7.9
2018-09-28T10:07:08.611Z,7.9
2018-09-28T10:08:10.188Z,7.9
2018-09-28T10:09:11.594Z,7.9
2018-09-28T10:10:13.152Z,7.9
2018-09-28T10:11:14.708Z,7.9
2018-09-28T10:12:16.704Z,7.2
2018-09-28T10:13:18.323Z,7.4
2018-09-28T10:14:19.891Z,7.6
2018-09-28T10:15:21.299Z,7.8
2018-09-28T10:16:22.353Z,7.9
2018-09-28T10:17:23.919Z,7.9
2018-09-28T10:18:25.492Z,7.9
2018-09-28T10:19:27.704Z,7.9
2018-09-28T10:20:29.279Z,7.9
2018-09-28T10:21:30.701Z,7.9
2018-09-28T10:22:32.265Z,7.9
2018-09-28T10:23:33.696Z,7.9
2018-09-28T10:24:35.105Z,7.9
2018-09-28T10:25:36.683Z,7.9
2018-09-28T10:26:38.251Z,7.9
2018-09-28T10:27:40.178Z,7.9
2018-09-28T10:28:42.634Z,7.9
2018-09-28T10:29:43.795Z,7.9
2018-09-28T10:30:45.368Z,7.9
2018-09-28T10:31:46.933Z,7.9
2018-09-28T10:33:03.203Z,7.9
2018-09-28T10:34:04.604Z,7.9
2018-09-28T10:35:06.168Z,7.9
2018-09-28T10:36:07.590Z,7.9
2018-09-28T10:37:09.155Z,7.9
2018-09-28T10:38:10.573Z,7.9
2018-09-28T10:39:12.432Z,7.9
2018-09-28T10:40:14.561Z,7.9
2018-09-28T10:41:16.982Z,7.9
2018-09-28T10:42:18.632Z,7.9
2018-09-28T10:43:20.204Z,7.9
2018-09-28T10:44:21.782Z,7.9
2018-09-28T10:45:23.730Z,7.9
2018-09-28T10:46:25.275Z,7.9
2018-09-28T10:47:26.832Z,7.9
2018-09-28T10:48:28.416Z,7.9
2018-09-28T10:49:29.980Z,7.9
2018-09-28T10:50:31.563Z,7.9
2018-09-28T10:51:33.497Z,7.9
2018-09-28T10:52:35.351Z,7.8
2018-09-28T10:53:37.018Z,7.8
2018-09-28T10:54:38.387Z,7.7
2018-09-28T10:55:39.959Z,7.6
2018-09-28T10:56:41.555Z,7.5
2018-09-28T10:57:43.128Z,7.4
2018-09-28T10:58:44.981Z,7.2
2018-09-28T10:59:46.481Z,7.2
2018-09-28T11:00:48.056Z,7.2
2018-09-28T11:01:49.648Z,7.1
2018-09-28T11:02:51.212Z,7.2
2018-09-28T11:03:52.832Z,7.1
2018-09-28T11:04:54.229Z,7.2
2018-09-28T11:05:55.820Z,7.2
2018-09-28T11:06:57.386Z,7.2
2018-09-28T11:07:58.773Z,7.2
2018-09-28T11:09:00.904Z,7.2
2018-09-28T11:10:02.544Z,7.2
2018-09-28T11:11:04.169Z,7.2
2018-09-28T11:12:05.736Z,7.1
2018-09-28T11:13:08.808Z,7.2
2018-09-28T11:14:10.217Z,7.2
2018-09-28T11:15:12.093Z,7.2
2018-09-28T11:16:13.508Z,7.2
2018-09-28T11:17:15.081Z,7.2
2018-09-28T11:18:16.486Z,7.2
2018-09-28T11:19:18.054Z,7.2
2018-09-28T11:20:19.436Z,7.2
2018-09-28T11:21:21.383Z,7.2
2018-09-28T11:22:23.020Z,7.2
2018-09-28T11:23:24.444Z,7.2
2018-09-28T11:24:26.008Z,7.2
2018-09-28T11:25:27.548Z,7.2
2018-09-28T11:26:29.611Z,7.2
2018-09-28T11:27:31.430Z,7.2
2018-09-28T11:28:32.982Z,7.2
2018-09-28T11:29:34.565Z,7.2
2018-09-28T11:30:35.976Z,7.2
2018-09-28T11:31:37.388Z,7.2
2018-09-28T11:32:38.978Z,7.2
2018-09-28T11:33:40.565Z,7.2
2018-09-28T11:34:41.946Z,7.2
2018-09-28T11:35:43.374Z,7.2
2018-09-28T11:36:44.951Z,7.2
2018-09-28T11:37:46.742Z,7.2
2018-09-28T11:38:48.162Z,7.2
2018-09-28T11:39:50.414Z,7.2
2018-09-28T11:40:52.056Z,7.2
2018-09-28T11:41:53.659Z,7.2
2018-09-28T11:42:55.239Z,7.2
2018-09-28T11:43:56.803Z,7.2
2018-09-28T11:44:58.386Z,7.2
2018-09-28T11:45:59.949Z,7.2
2018-09-28T11:47:01.511Z,7.2
2018-09-28T11:48:03.085Z,7.2
2018-09-28T11:49:04.437Z,7.3
2018-09-28T11:50:05.838Z,7.3
2018-09-28T11:51:07.501Z,7.4
2018-09-28T11:52:09.068Z,7.4
2018-09-28T11:53:10.620Z,7.5
2018-09-28T11:54:12.186Z,7.5
2018-09-28T11:55:13.742Z,7.6
2018-09-28T11:56:15.156Z,7.7
2018-09-28T11:57:17.218Z,7.7
2018-09-28T11:58:18.839Z,7.8
2018-09-28T11:59:20.418Z,7.8
2018-09-28T12:00:21.835Z,7.9
2018-09-28T12:01:23.400Z,7.9
2018-09-28T12:02:25.609Z,7.9
2018-09-28T12:03:28.185Z,7.9
2018-09-28T12:04:29.617Z,7.9
2018-09-28T12:05:31.797Z,7.9
2018-09-28T12:06:34.771Z,7.9
2018-09-28T12:07:36.451Z,7.9
2018-09-28T12:08:37.831Z,7.9
2018-09-28T12:09:39.916Z,7.9
2018-09-28T12:10:41.283Z,7.9
2018-09-28T12:11:42.858Z,7.9
2018-09-28T12:12:45.095Z,7.9
2018-09-28T12:13:46.426Z,7.9
2018-09-28T12:14:48.006Z,7.9
2018-09-28T12:15:50.067Z,7.9
2018-09-28T12:16:51.766Z,7.9
2018-09-28T12:17:53.189Z,7.9
2018-09-28T12:18:54.754Z,7.9
2018-09-28T12:19:56.308Z,7.9
2018-09-28T12:20:57.920Z,7.9
2018-09-28T12:21:59.501Z,7.9
2018-09-28T12:23:00.907Z,7.9
2018-09-28T12:24:02.521Z,7.9
2018-09-28T12:25:04.133Z,7.9
2018-09-28T12:26:05.709Z,7.9
2018-09-28T12:27:07.389Z,7.8
2018-09-28T12:28:08.787Z,7.8
2018-09-28T12:29:10.356Z,7.8
2018-09-28T12:30:12.263Z,7.8
2018-09-28T12:31:13.837Z,7.8
2018-09-28T12:32:15.403Z,7.9
2018-09-28T12:33:17.018Z,7.9
2018-09-28T12:34:18.660Z,7.8
2018-09-28T12:35:20.217Z,7.8
2018-09-28T12:36:22.467Z,7.8
2018-09-28T12:37:23.946Z,7.8
2018-09-28T12:38:25.503Z,7.7
2018-09-28T12:39:27.466Z,7.6
2018-09-28T12:40:29.036Z,7.5
2018-09-28T12:41:30.607Z,7.4
2018-09-28T12:42:32.465Z,7.3
2018-09-28T12:43:36.719Z,7.3
2018-09-28T12:44:38.922Z,7.2
2018-09-28T12:45:41.184Z,7.2
2018-09-28T12:46:42.780Z,7.2
2018-09-28T12:47:43.872Z,7.2
2018-09-28T12:48:46.000Z,7.2
2018-09-28T12:49:47.184Z,7.2
2018-09-28T12:50:49.267Z,7.2
2018-09-28T12:51:51.013Z,7.2
2018-09-28T12:52:52.595Z,7.2
2018-09-28T12:53:54.007Z,7.2
2018-09-28T12:54:55.607Z,7.2
2018-09-28T12:55:57.021Z,7.2
2018-09-28T12:56:58.613Z,7.2
2018-09-28T12:58:00.194Z,7.2
2018-09-28T12:59:01.587Z,7.2
2018-09-28T13:00:03.018Z,7.2
2018-09-28T13:01:06.190Z,7.2
2018-09-28T13:02:08.174Z,7.2
2018-09-28T13:03:09.732Z,7.2
2018-09-28T13:04:11.317Z,7.2
2018-09-28T13:05:12.893Z,7.2
2018-09-28T13:06:14.769Z,7.2
2018-09-28T13:07:16.108Z,7.2
2018-09-28T13:08:18.125Z,7.2
2018-09-28T13:09:19.556Z,7.2
2018-09-28T13:10:20.967Z,7.2
2018-09-28T13:11:22.559Z,7.2
2018-09-28T13:12:24.935Z,7.2
2018-09-28T13:13:26.643Z,7.2
2018-09-28T13:14:29.572Z,7.3
2018-09-28T13:15:31.228Z,7.3
2018-09-28T13:16:32.642Z,7.3
2018-09-28T13:17:34.211Z,7.3
2018-09-28T13:18:36.061Z,7.4
2018-09-28T13:19:37.466Z,7.4
2018-09-28T13:20:39.361Z,7.5
2018-09-28T13:21:41.304Z,7.5
2018-09-28T13:22:42.949Z,7.6
2018-09-28T13:23:44.520Z,7.7
2018-09-28T13:24:46.226Z,7.7
2018-09-28T13:25:47.644Z,7.8
2018-09-28T13:26:49.571Z,7.9
2018-09-28T13:27:51.177Z,7.9
2018-09-28T13:28:53.239Z,7.9
2018-09-28T13:29:54.828Z,7.9
2018-09-28T13:30:56.294Z,7.9
2018-09-28T13:31:57.707Z,7.9
2018-09-28T13:32:59.286Z,7.9
2018-09-28T13:34:00.974Z,7.9
2018-09-28T13:35:02.492Z,7.9
2018-09-28T13:36:04.104Z,7.9
2018-09-28T13:37:06.096Z,7.9
2018-09-28T13:38:08.156Z,7.9
2018-09-28T13:39:10.254Z,7.9
2018-09-28T13:40:12.366Z,7.9
2018-09-28T13:41:13.957Z,7.9
2018-09-28T13:42:16.004Z,7.9
2018-09-28T13:43:17.157Z,7.9
2018-09-28T13:44:19.205Z,7.9
2018-09-28T13:45:20.932Z,7.9
2018-09-28T13:46:22.657Z,7.7
2018-09-28T13:47:24.245Z,7.9
2018-09-28T13:48:26.233Z,7.9
2018-09-28T13:49:27.556Z,7.9
2018-09-28T13:50:29.761Z,7.9
2018-09-28T13:51:30.987Z,7.9
2018-09-28T13:52:33.589Z,7.9
2018-09-28T13:53:35.323Z,7.9
2018-09-28T13:54:37.208Z,7.9
2018-09-28T13:55:38.774Z,7.9
2018-09-28T13:56:40.812Z,7.9
2018-09-28T13:57:42.276Z,7.9
2018-09-28T13:58:44.268Z,7.9
2018-09-28T13:59:45.919Z,7.9
2018-09-28T14:00:48.007Z,7.9
2018-09-28T14:01:49.344Z,7.9
2018-09-28T14:02:50.738Z,7.9
2018-09-28T14:03:52.119Z,7.9
2018-09-28T14:04:53.536Z,7.9
2018-09-28T14:05:55.079Z,7.9
2018-09-28T14:06:57.858Z,7.9
2018-09-28T14:07:59.571Z,7.9
2018-09-28T14:09:00.831Z,7.9